Time;durP1;ratioP1;P1;durP2;ratioP2;P2;SDS_P1;SDS_P2;PMS_P1;PMS_P2;Temp;Humidity;BMP_temperature;BMP_pressure;BME280_temperature;BME280_humidity;BME280_pressure;Samples;Min_cycle;Max_cycle;Signal;HPM_P1;HPM_P2
2020/12/20 00:02:56;;;;;;;109.07;83.68;;;;;;;8.38;95.49;101570.69;4995290;28;20047;-79
2020/12/20 00:06:00;;;;;;;102.72;79.32;;;;;;;8.47;95.74;101567.47;4994755;28;20498;-78
2020/12/20 00:09:10;;;;;;;103.10;80.65;;;;;;;8.46;95.60;101557.72;4994994;28;20050;-77
2020/12/20 00:12:15;;;;;;;98.22;78.45;;;;;;;8.48;95.46;101554.00;4994932;28;20047;-80
2020/12/20 00:15:19;;;;;;;102.78;81.38;;;;;;;8.47;95.49;101554.94;4982926;28;20497;-80
2020/12/20 00:18:24;;;;;;;102.28;79.35;;;;;;;8.50;95.23;101556.59;4971589;28;20058;-77
2020/12/20 00:21:28;;;;;;;;;;;;;;;8.40;95.10;101550.91;4994435;28;20480;-79
2020/12/20 00:24:33;;;;;;;110.03;84.55;;;;;;;8.36;95.40;101544.03;4993880;28;20272;-78
2020/12/20 00:27:38;;;;;;;105.03;83.57;;;;;;;8.44;95.42;101541.75;4994651;28;20051;-78
2020/12/20 00:30:42;;;;;;;100.53;81.13;;;;;;;8.48;95.17;101551.34;4994729;28;20050;-77
2020/12/20 00:33:46;;;;;;;107.40;82.05;;;;;;;8.47;95.40;101538.91;4993823;28;20393;-78
2020/12/20 00:36:51;;;;;;;103.43;79.78;;;;;;;8.48;94.98;101540.63;4994589;28;20050;-79
2020/12/20 00:39:59;;;;;;;105.60;81.32;;;;;;;8.47;95.17;101538.91;4994536;28;20050;-79
2020/12/20 00:43:03;;;;;;;102.55;79.88;;;;;;;8.46;95.02;101528.28;4994698;28;20042;-79
2020/12/20 00:46:07;;;;;;;106.20;81.85;;;;;;;8.50;95.13;101537.84;4994449;28;20050;-78
2020/12/20 00:49:11;;;;;;;100.75;79.60;;;;;;;8.48;94.91;101535.28;4994639;28;20042;-78
2020/12/20 00:52:16;;;;;;;107.82;82.60;;;;;;;8.50;95.05;101544.06;4994165;28;20046;-79
2020/12/20 00:55:20;;;;;;;102.93;80.32;;;;;;;8.49;94.71;101550.34;4993740;28;20047;-78
2020/12/20 00:58:25;;;;;;;105.57;78.70;;;;;;;8.52;94.86;101535.09;4994076;28;20042;-78
2020/12/20 01:01:30;;;;;;;110.00;83.68;;;;;;;8.46;94.59;101526.50;4994266;28;20046;-79
2020/12/20 01:04:34;;;;;;;107.57;80.63;;;;;;;8.46;94.98;101531.84;4995210;28;20038;-79
2020/12/20 01:07:39;;;;;;;101.93;78.38;;;;;;;8.45;94.63;101534.59;4997682;28;20050;-78
2020/12/20 01:10:44;;;;;;;99.90;78.70;;;;;;;8.41;94.55;101522.34;4998440;28;20046;-77
2020/12/20 01:13:51;;;;;;;113.72;84.60;;;;;;;8.33;94.99;101525.50;4986321;28;20520;-80
2020/12/20 01:16:56;;;;;;;100.78;78.82;;;;;;;8.37;95.17;101516.31;4997027;28;20050;-78
2020/12/20 01:20:00;;;;;;;107.50;81.50;;;;;;;8.41;94.58;101517.88;4996385;28;20046;-77
2020/12/20 01:23:06;;;;;;;101.53;77.90;;;;;;;8.41;94.63;101523.22;4996149;28;20054;-77
2020/12/20 01:26:12;;;;;;;101.75;79.57;;;;;;;8.41;94.70;101525.03;4995828;28;20054;-77
2020/12/20 01:29:17;;;;;;;103.75;78.57;;;;;;;8.40;94.59;101525.97;4995779;28;20050;-77
2020/12/20 01:32:24;;;;;;;103.68;79.28;;;;;;;8.44;94.85;101536.41;4996081;28;20046;-78
2020/12/20 01:35:37;;;;;;;103.30;77.80;;;;;;;8.47;94.76;101527.31;4995931;28;20042;-76
2020/12/20 01:38:44;;;;;;;105.22;83.32;;;;;;;8.44;94.48;101531.03;4995333;28;20377;-77
2020/12/20 01:41:52;;;;;;;113.45;83.75;;;;;;;8.33;94.85;101513.94;4984751;28;20058;-78
2020/12/20 01:45:00;;;;;;;108.85;83.03;;;;;;;8.39;94.76;101522.44;4995899;28;20054;-80
2020/12/20 01:48:09;;;;;;;103.57;80.75;;;;;;;8.33;94.75;101516.59;4984832;28;20047;-77
2020/12/20 01:51:20;;;;;;;101.85;78.22;;;;;;;8.41;94.56;101522.34;4995113;28;20042;-77
2020/12/20 01:54:36;;;;;;;112.75;83.70;;;;;;;8.38;95.16;101512.72;4995423;28;20046;-78
2020/12/20 01:57:52;;;;;;;110.68;80.85;;;;;;;8.40;95.12;101524.16;4995271;28;20050;-77
2020/12/20 02:01:09;;;;;;;107.95;82.93;;;;;;;8.43;94.53;101526.66;4995581;28;20158;-78
2020/12/20 02:04:26;;;;;;;107.13;80.35;;;;;;;8.38;94.60;101520.72;4995122;28;20474;-78
2020/12/20 02:07:31;;;;;;;108.43;80.97;;;;;;;8.41;94.75;101522.34;4994592;28;20047;-76
2020/12/20 02:10:35;;;;;;;106.03;80.35;;;;;;;8.41;94.54;101531.25;4995153;28;20038;-76
2020/12/20 02:13:48;;;;;;;103.13;78.50;;;;;;;8.41;94.61;101527.72;4983717;28;20054;-80
2020/12/20 02:16:54;;;;;;;103.15;79.97;;;;;;;8.36;94.85;101513.75;5009418;28;20050;-80
2020/12/20 02:19:59;;;;;;;107.75;81.15;;;;;;;8.40;95.15;101516.13;4985029;28;855946;-79
2020/12/20 02:23:23;;;;;;;109.00;81.20;;;;;;;8.38;94.86;101523.41;5016961;28;20054;-79
2020/12/20 02:26:34;;;;;;;108.38;82.97;;;;;;;8.33;95.15;101506.75;5015376;28;20042;-78
2020/12/20 02:29:39;;;;;;;101.82;78.82;;;;;;;8.36;95.15;101514.63;5015534;28;20053;-78
2020/12/20 02:32:44;;;;;;;104.20;80.13;;;;;;;8.34;95.13;101518.34;5016464;28;20041;-78
2020/12/20 02:35:48;;;;;;;106.20;81.28;;;;;;;8.35;95.06;101522.72;5015661;28;20053;-78
2020/12/20 02:38:57;;;;;;;106.47;80.65;;;;;;;8.38;95.42;101523.41;5016443;28;20049;-78
2020/12/20 02:42:22;;;;;;;104.13;78.45;;;;;;;8.34;95.13;101516.53;5019175;28;20038;-78
2020/12/20 02:45:27;;;;;;;105.50;79.40;;;;;;;8.37;95.36;101519.00;5014776;28;20050;-78
2020/12/20 02:48:32;;;;;;;109.57;84.30;;;;;;;8.32;95.32;101506.88;5015441;28;20042;-79
2020/12/20 02:51:39;;;;;;;105.63;80.93;;;;;;;8.29;95.48;101496.34;4997756;28;20398;-78
2020/12/20 02:54:44;;;;;;;112.05;83.85;;;;;;;8.20;95.28;101503.06;4995033;28;20042;-80
2020/12/20 02:57:56;;;;;;;115.15;85.63;;;;;;;8.15;95.74;101505.16;4995866;28;20058;-79
2020/12/20 03:01:19;;;;;;;113.33;84.30;;;;;;;8.22;95.82;101501.16;5006738;28;20042;-79
2020/12/20 03:04:23;;;;;;;117.32;85.00;;;;;;;8.18;96.02;101504.97;5015878;28;20050;-79
2020/12/20 03:07:28;;;;;;;115.88;87.28;;;;;;;8.20;95.87;101511.09;5014653;28;20046;-78
2020/12/20 03:10:33;;;;;;;121.30;87.35;;;;;;;8.21;95.76;101510.16;5014396;28;20401;-77
2020/12/20 03:13:38;;;;;;;127.05;90.80;;;;;;;8.18;96.28;101502.31;5014785;28;20485;-79
2020/12/20 03:16:45;;;;;;;127.03;94.10;;;;;;;8.08;96.65;101503.78;5003800;28;20046;-77
2020/12/20 03:19:50;;;;;;;127.28;94.07;;;;;;;8.08;96.69;101502.94;5014831;28;20041;-78
2020/12/20 03:22:59;;;;;;;118.78;89.47;;;;;;;8.14;97.05;101505.25;5014639;28;20033;-79
2020/12/20 03:26:41;;;;;;;120.38;89.53;;;;;;;8.15;96.76;101501.59;5014854;28;20050;-79
2020/12/20 03:30:05;;;;;;;116.10;87.80;;;;;;;8.16;97.08;101501.53;5015059;28;20046;-77
2020/12/20 03:33:31;;;;;;;119.97;89.60;;;;;;;8.16;97.15;101498.00;5014778;28;20389;-79
2020/12/20 03:36:51;;;;;;;127.45;90.85;;;;;;;8.07;96.86;101493.19;5014401;28;20046;-79
2020/12/20 03:39:59;;;;;;;127.05;92.78;;;;;;;8.07;96.99;101491.41;5014646;28;20045;-80
2020/12/20 03:43:05;;;;;;;132.73;95.63;;;;;;;8.06;97.27;101500.34;5014542;28;20465;-78
2020/12/20 03:46:14;;;;;;;130.07;93.32;;;;;;;8.11;97.54;101498.28;5013679;28;20050;-78
2020/12/20 03:49:26;;;;;;;132.52;97.05;;;;;;;8.08;97.27;101495.78;5014222;28;20046;-79
2020/12/20 03:52:33;;;;;;;140.13;97.63;;;;;;;7.99;97.09;101474.06;5013861;28;20050;-79
2020/12/20 03:55:52;;;;;;;133.85;95.60;;;;;;;7.98;97.57;101478.56;5014396;28;20471;-77
2020/12/20 03:58:57;;;;;;;139.70;95.65;;;;;;;7.94;97.46;101473.47;5014148;28;20045;-79
2020/12/20 04:02:03;;;;;;;133.13;94.20;;;;;;;7.97;97.73;101476.84;5014310;28;20050;-79
2020/12/20 04:05:08;;;;;;;130.60;93.32;;;;;;;7.99;97.39;101484.75;5013768;28;20400;-78
2020/12/20 04:08:16;;;;;;;129.93;91.82;;;;;;;8.02;97.56;101488.13;5014283;28;20461;-77
2020/12/20 04:11:34;;;;;;;138.00;96.78;;;;;;;7.97;97.37;101468.81;5013818;28;20042;-79
2020/12/20 04:14:41;;;;;;;136.63;96.13;;;;;;;7.94;97.28;101470.81;5013544;28;20384;-78
2020/12/20 04:17:46;;;;;;;137.50;99.25;;;;;;;7.88;97.73;101470.22;5013679;28;20046;-79
2020/12/20 04:20:50;;;;;;;141.18;97.53;;;;;;;7.96;97.35;101477.78;5013010;28;20041;-79
2020/12/20 04:23:54;;;;;;;137.93;96.80;;;;;;;7.91;97.57;101469.19;5013946;28;20046;-77
2020/12/20 04:27:04;;;;;;;136.07;95.20;;;;;;;7.93;97.77;101472.63;5014650;28;20041;-78
2020/12/20 04:30:27;;;;;;;129.57;91.75;;;;;;;8.04;97.48;101483.56;5013386;28;20037;-77
2020/12/20 04:33:39;;;;;;;134.95;92.97;;;;;;;8.04;97.83;101480.00;5013797;28;20393;-78
2020/12/20 04:36:51;;;;;;;134.57;94.80;;;;;;;8.00;97.32;101473.97;5013569;28;20046;-77
2020/12/20 04:40:09;;;;;;;138.95;96.95;;;;;;;8.01;97.76;101478.38;5013696;28;20050;-78
2020/12/20 04:43:22;;;;;;;136.85;94.20;;;;;;;8.06;97.47;101478.97;5013372;28;20049;-79
2020/12/20 04:46:30;;;;;;;136.93;95.10;;;;;;;8.03;97.56;101464.91;5013344;28;20401;-79
2020/12/20 04:49:56;;;;;;;135.95;94.45;;;;;;;7.98;97.46;101465.19;5013390;28;20050;-79
2020/12/20 04:53:06;;;;;;;143.23;95.07;;;;;;;7.95;97.89;101464.53;5002352;28;20050;-78
2020/12/20 04:56:37;;;;;;;141.30;96.32;;;;;;;7.92;97.82;101460.22;5013186;28;20042;-78
2020/12/20 04:59:52;;;;;;;138.30;94.85;;;;;;;7.99;97.95;101452.69;5013502;28;20054;-78
2020/12/20 05:02:58;;;;;;;141.48;96.63;;;;;;;7.98;97.57;101454.50;5013216;28;20045;-78
2020/12/20 05:06:03;;;;;;;139.88;96.13;;;;;;;8.01;97.56;101458.78;5013157;28;20050;-77
2020/12/20 05:09:09;;;;;;;139.45;96.07;;;;;;;8.03;97.38;101460.44;5011281;28;20042;-78
2020/12/20 05:12:25;;;;;;;138.40;94.68;;;;;;;8.04;97.48;101462.16;5012989;28;20046;-78
2020/12/20 05:15:30;;;;;;;144.80;98.82;;;;;;;8.00;97.52;101468.63;5013019;28;20377;-78
2020/12/20 05:19:15;;;;;;;143.27;95.57;;;;;;;7.96;97.61;101461.75;4953044;29;20043;-78
2020/12/20 05:22:22;;;;;;;137.02;92.53;;;;;;;7.99;98.10;101466.91;4972696;28;20055;-78
2020/12/20 05:25:33;;;;;;;138.25;92.85;;;;;;;8.07;97.65;101477.16;4961434;28;20038;-77
2020/12/20 05:28:39;;;;;;;129.35;91.80;;;;;;;8.10;97.89;101475.16;4961205;28;20051;-77
2020/12/20 05:31:43;;;;;;;133.52;91.22;;;;;;;8.08;97.46;101468.16;4961625;28;20051;-78
2020/12/20 05:35:12;;;;;;;136.50;93.00;;;;;;;8.03;97.47;101463.09;4961663;28;20043;-77
2020/12/20 05:38:20;;;;;;;137.48;93.57;;;;;;;8.02;97.47;101461.41;4961573;28;20482;-78
2020/12/20 05:41:30;;;;;;;135.25;92.60;;;;;;;7.98;97.45;101467.00;4950540;28;20046;-77
2020/12/20 05:44:34;;;;;;;140.80;94.93;;;;;;;8.03;97.47;101471.13;4961090;28;20043;-77
2020/12/20 05:47:45;;;;;;;138.07;95.18;;;;;;;7.97;97.20;101466.16;4961828;28;20051;-77
2020/12/20 05:50:49;;;;;;;140.60;94.80;;;;;;;8.04;97.69;101474.66;4963300;28;20063;-78
2020/12/20 05:54:13;;;;;;;131.48;92.68;;;;;;;8.05;97.53;101466.53;4973011;28;20058;-77
2020/12/20 05:57:21;;;;;;;129.95;90.95;;;;;;;8.08;97.27;101479.72;4997462;28;20445;-77
2020/12/20 06:00:28;;;;;;;140.77;94.15;;;;;;;8.03;97.62;101465.78;4997720;28;20050;-79
2020/12/20 06:03:33;;;;;;;136.32;91.97;;;;;;;8.02;97.23;101465.88;4996605;28;20047;-78
2020/12/20 06:06:42;;;;;;;149.30;96.57;;;;;;;7.98;97.54;101478.56;4997571;28;20042;-77
2020/12/20 06:09:54;;;;;;;155.70;97.15;;;;;;;7.98;97.31;101478.56;4997298;28;20046;-78
2020/12/20 06:13:07;;;;;;;155.52;98.22;;;;;;;7.99;97.39;101476.75;4996455;28;20042;-78
2020/12/20 06:16:14;;;;;;;151.77;99.60;;;;;;;7.92;97.87;101473.59;4996733;28;20046;-78
2020/12/20 06:19:25;;;;;;;154.32;101.32;;;;;;;7.97;98.04;101474.19;4984879;28;20042;-77
2020/12/20 06:22:31;;;;;;;156.75;98.90;;;;;;;7.97;97.66;101474.19;4995963;28;20042;-79
2020/12/20 06:25:43;;;;;;;144.65;94.00;;;;;;;7.96;97.94;101461.75;4996994;28;20047;-78
2020/12/20 06:28:49;;;;;;;146.50;94.28;;;;;;;8.01;98.12;101472.16;4996851;28;20046;-77
2020/12/20 06:31:55;;;;;;;155.00;100.72;;;;;;;7.97;98.24;101473.31;4997153;28;20051;-77
2020/12/20 06:35:11;;;;;;;150.48;97.53;;;;;;;7.98;98.15;101465.19;4996844;28;20047;-77
2020/12/20 06:38:20;;;;;;;161.95;100.68;;;;;;;7.97;98.29;101474.19;4995942;28;20050;-78
2020/12/20 06:41:35;;;;;;;172.88;104.63;;;;;;;7.93;98.19;101471.75;4996735;28;20050;-78
2020/12/20 06:44:39;;;;;;;177.20;108.10;;;;;;;7.91;97.93;101473.66;4996460;28;20054;-76
2020/12/20 06:47:49;;;;;;;184.07;109.65;;;;;;;7.88;98.68;101474.69;4996215;28;20050;-77
2020/12/20 06:50:53;;;;;;;183.35;110.78;;;;;;;7.85;98.33;101464.22;4996332;28;20050;-78
2020/12/20 06:53:58;;;;;;;195.57;113.45;;;;;;;7.82;98.61;101480.41;4996275;28;20042;-78
2020/12/20 06:57:11;;;;;;;201.48;115.93;;;;;;;7.83;98.76;101482.13;4995233;28;20043;-78
2020/12/20 07:00:54;;;;;;;191.18;115.10;;;;;;;7.79;99.12;101492.16;5002720;28;20042;-77
2020/12/20 07:03:59;;;;;;;183.63;111.20;;;;;;;7.87;99.46;101494.38;4995809;28;20389;-78
2020/12/20 07:07:07;;;;;;;183.38;107.97;;;;;;;7.95;99.39;101494.75;4996348;28;20045;-78
2020/12/20 07:10:45;;;;;;;185.00;110.00;;;;;;;7.90;99.02;101502.19;4996406;28;20046;-78
2020/12/20 07:13:51;;;;;;;184.65;108.32;;;;;;;7.93;99.49;101502.03;4996083;28;20054;-78
2020/12/20 07:16:55;;;;;;;178.27;108.63;;;;;;;7.91;98.94;101506.59;4995247;28;20046;-77
2020/12/20 07:20:11;;;;;;;168.85;104.85;;;;;;;7.92;99.35;101503.00;4995499;28;20058;-79
2020/12/20 07:23:16;;;;;;;189.25;110.32;;;;;;;7.86;99.30;101498.84;4996257;28;20050;-79
2020/12/20 07:26:23;;;;;;;184.18;110.63;;;;;;;7.92;98.96;101508.34;4995831;28;20401;-76
2020/12/20 07:29:29;;;;;;;188.25;108.60;;;;;;;7.80;99.39;101493.00;4995977;28;20382;-74
2020/12/20 07:32:33;;;;;;;202.73;116.45;;;;;;;7.79;99.88;101505.50;4995800;28;20046;-77
2020/12/20 07:35:46;;;;;;;269.67;125.82;;;;;;;7.76;100.00;101507.50;4995515;28;20046;-76
2020/12/20 07:38:51;;;;;;;257.67;128.02;;;;;;;7.75;100.00;101505.78;4995158;28;20429;-77
2020/12/20 07:41:59;;;;;;;270.58;129.45;;;;;;;7.69;100.00;101496.31;4995522;28;20043;-76
2020/12/20 07:45:14;;;;;;;255.90;132.57;;;;;;;7.70;100.00;101507.84;4995544;28;20042;-78
2020/12/20 07:48:25;;;;;;;253.95;130.68;;;;;;;7.74;100.00;101517.41;4994579;28;20042;-77
2020/12/20 07:51:29;;;;;;;222.63;123.78;;;;;;;7.85;100.00;101520.34;4990365;28;20334;-77
2020/12/20 07:54:34;;;;;;;235.75;123.53;;;;;;;7.84;100.00;101522.16;4991201;28;20042;-77
2020/12/20 07:57:38;;;;;;;203.50;118.00;;;;;;;7.84;100.00;101523.94;4991095;28;20050;-77
2020/12/20 08:00:44;;;;;;;166.80;108.20;;;;;;;7.87;100.00;101516.59;4990341;28;20042;-77
2020/12/20 08:03:49;;;;;;;166.15;107.95;;;;;;;7.86;100.00;101524.72;4991566;28;20050;-77
2020/12/20 08:06:53;;;;;;;158.70;107.18;;;;;;;7.85;100.00;101512.31;4994702;28;20050;-77
2020/12/20 08:09:58;;;;;;;168.20;109.07;;;;;;;7.89;100.00;101516.53;4995213;28;20397;-77
2020/12/20 08:13:02;;;;;;;184.82;121.50;;;;;;;7.87;100.00;101521.09;4994776;28;20462;-77
2020/12/20 08:16:07;;;;;;;192.38;130.13;;;;;;;7.87;100.00;101521.94;4995104;28;20046;-77
2020/12/20 08:19:31;;;;;;;167.93;108.53;;;;;;;7.84;100.00;101521.28;4994667;28;20050;-77
2020/12/20 08:22:38;;;;;;;178.07;112.35;;;;;;;7.85;100.00;101520.34;4995011;28;20046;-77
2020/12/20 08:25:42;;;;;;;185.88;113.93;;;;;;;7.88;100.00;101528.16;4994080;28;20050;-77
2020/12/20 08:28:46;;;;;;;177.18;111.35;;;;;;;7.92;100.00;101529.72;4994950;28;20373;-77
2020/12/20 08:31:51;;;;;;;160.98;107.78;;;;;;;7.93;100.00;101531.44;4994828;28;20042;-77
2020/12/20 08:35:15;;;;;;;164.43;107.63;;;;;;;7.91;100.00;101529.78;4994743;28;20038;-77
2020/12/20 08:38:19;;;;;;;162.55;106.53;;;;;;;7.99;100.00;101531.09;4993971;28;20046;-77
2020/12/20 08:41:25;;;;;;;155.55;102.18;;;;;;;8.07;100.00;101542.19;4994690;28;20042;-77
2020/12/20 08:44:30;;;;;;;161.88;101.13;;;;;;;8.14;100.00;101540.88;4982699;28;20042;-77
2020/12/20 08:47:35;;;;;;;146.73;99.50;;;;;;;8.19;99.52;101544.16;4994661;28;20054;-77
2020/12/20 08:50:39;;;;;;;156.43;101.53;;;;;;;8.17;100.00;101545.19;4994493;28;20046;-77
2020/12/20 08:53:46;;;;;;;153.63;102.47;;;;;;;8.20;99.63;101540.50;4993832;28;20046;-76
2020/12/20 08:57:00;;;;;;;153.00;101.65;;;;;;;8.30;99.57;101541.72;4994580;28;20039;-76
2020/12/20 09:00:15;;;;;;;156.95;102.18;;;;;;;8.42;98.93;101540.13;4994610;28;20042;-76
2020/12/20 09:03:24;;;;;;;146.18;97.97;;;;;;;8.53;98.60;101543.03;4994536;28;20043;-77
2020/12/20 09:06:28;;;;;;;131.52;93.35;;;;;;;8.63;98.39;101541.50;4994450;28;20042;-77
2020/12/20 09:09:33;;;;;;;128.43;92.43;;;;;;;8.77;98.03;101543.34;4994198;28;20046;-77
2020/12/20 09:12:49;;;;;;;112.82;86.57;;;;;;;8.85;96.93;101547.28;4994389;28;20042;-77
2020/12/20 09:15:54;;;;;;;121.65;88.10;;;;;;;8.88;96.67;101548.91;4994641;28;20397;-76
2020/12/20 09:18:59;;;;;;;122.68;87.85;;;;;;;8.86;95.84;101548.16;4994016;28;20050;-76
2020/12/20 09:22:03;;;;;;;128.10;90.10;;;;;;;8.82;95.25;101546.59;4994457;28;20046;-76
2020/12/20 09:25:08;;;;;;;125.38;93.05;;;;;;;8.83;95.46;101548.31;4995275;28;20386;-77
2020/12/20 09:28:14;;;;;;;127.22;91.57;;;;;;;8.84;95.29;101552.75;4997417;28;20042;-77
2020/12/20 09:31:20;;;;;;;134.52;94.40;;;;;;;8.84;95.14;101556.25;4998072;28;20050;-76
2020/12/20 09:34:33;;;;;;;144.40;96.32;;;;;;;8.85;94.67;101549.94;4998025;28;20046;-76
2020/12/20 09:37:41;;;;;;;134.25;92.15;;;;;;;8.87;94.62;101560.56;4997953;28;20050;-78
2020/12/20 09:40:45;;;;;;;134.45;95.00;;;;;;;8.93;94.53;101555.72;4998216;28;20046;-75
2020/12/20 09:43:52;;;;;;;132.02;91.80;;;;;;;8.96;94.41;101541.25;4997704;28;20409;-75
2020/12/20 09:46:56;;;;;;;139.15;93.30;;;;;;;8.95;94.76;101537.72;4997827;28;20046;-75
2020/12/20 09:50:00;;;;;;;129.60;91.45;;;;;;;9.06;94.44;101547.78;4998106;28;20409;-79
2020/12/20 09:53:05;;;;;;;126.93;87.18;;;;;;;9.14;93.92;101540.97;4997681;28;20046;-76
2020/12/20 09:56:09;;;;;;;125.93;86.40;;;;;;;9.28;93.46;101549.94;4997656;28;20043;-76
2020/12/20 09:59:13;;;;;;;138.43;96.22;;;;;;;9.30;92.98;101535.50;4997165;28;20054;-78
2020/12/20 10:02:17;;;;;;;137.68;92.63;;;;;;;9.29;92.75;101532.91;4997823;28;20050;-77
2020/12/20 10:05:22;;;;;;;125.90;88.88;;;;;;;9.29;92.27;101538.25;4997514;28;20039;-78
2020/12/20 10:08:27;;;;;;;124.68;86.53;;;;;;;9.39;92.16;101534.03;4997376;28;20035;-78
2020/12/20 10:11:32;;;;;;;120.68;85.15;;;;;;;9.49;91.75;101528.00;4997375;28;20047;-78
2020/12/20 10:14:36;;;;;;;120.95;84.20;;;;;;;9.70;90.91;101515.88;4997275;28;20038;-78
2020/12/20 10:17:40;;;;;;;115.07;80.93;;;;;;;9.91;90.44;101520.78;4997141;28;20034;-78
2020/12/20 10:20:45;;;;;;;109.55;76.10;;;;;;;10.14;88.93;101517.47;4995374;28;20047;-77
2020/12/20 10:23:49;;;;;;;110.22;77.30;;;;;;;10.12;88.03;101503.28;4997120;28;20038;-77
2020/12/20 10:26:54;;;;;;;105.53;74.95;;;;;;;9.99;88.37;101513.94;4997347;28;20046;-78
2020/12/20 10:29:58;;;;;;;102.85;74.40;;;;;;;9.98;88.00;101517.59;4996802;28;20042;-77
2020/12/20 10:33:03;;;;;;;103.38;75.40;;;;;;;9.95;88.65;101511.59;4996672;28;20474;-77
2020/12/20 10:36:07;;;;;;;105.00;75.40;;;;;;;9.88;88.57;101508.44;4995579;28;20034;-77
2020/12/20 10:39:18;;;;;;;108.63;76.03;;;;;;;9.80;89.21;101514.28;4996690;28;20046;-77
2020/12/20 10:42:22;;;;;;;111.90;78.10;;;;;;;9.73;89.59;101506.75;4996699;28;20043;-77
2020/12/20 10:45:26;;;;;;;117.25;81.75;;;;;;;9.67;89.52;101505.38;4995577;28;20042;-78
2020/12/20 10:48:31;;;;;;;119.75;81.38;;;;;;;9.58;89.84;101499.75;4996650;28;20043;-77
2020/12/20 10:51:35;;;;;;;120.80;83.22;;;;;;;9.61;89.79;101496.84;4996754;28;20401;-77
2020/12/20 10:54:39;;;;;;;122.65;80.35;;;;;;;9.65;89.92;101501.91;4996448;28;20459;-77
2020/12/20 10:57:44;;;;;;;122.30;82.18;;;;;;;9.58;89.83;101497.06;4995535;28;20046;-78
2020/12/20 11:00:48;;;;;;;126.60;81.47;;;;;;;9.63;90.57;101495.78;4996508;28;20051;-78
2020/12/20 11:03:54;;;;;;;124.40;84.00;;;;;;;9.62;90.45;101503.94;4995243;28;20050;-78
2020/12/20 11:07:01;;;;;;;119.63;78.65;;;;;;;9.67;90.30;101497.31;4996222;28;20042;-78
2020/12/20 11:10:05;;;;;;;123.15;81.75;;;;;;;9.77;89.61;101498.44;4996243;28;20042;-77
2020/12/20 11:13:09;;;;;;;122.80;82.05;;;;;;;9.86;90.17;101496.09;4995071;28;20042;-77
2020/12/20 11:16:17;;;;;;;128.55;85.05;;;;;;;9.87;89.01;101487.09;4996417;28;20046;-78
2020/12/20 11:19:21;;;;;;;121.78;79.20;;;;;;;9.92;89.43;101490.31;4995738;28;20054;-78
2020/12/20 11:22:25;;;;;;;118.28;79.57;;;;;;;9.98;89.37;101481.84;4995996;28;20046;-78
2020/12/20 11:25:30;;;;;;;116.00;78.78;;;;;;;10.00;89.05;101479.94;4995794;28;20046;-78
2020/12/20 11:28:34;;;;;;;123.65;83.30;;;;;;;10.04;88.38;101489.50;4996032;28;20038;-77
2020/12/20 11:31:39;;;;;;;124.22;82.43;;;;;;;10.11;88.17;101483.63;4995275;28;20482;-78
2020/12/20 11:34:43;;;;;;;121.28;80.93;;;;;;;10.15;88.22;101481.59;4996161;28;20461;-77
2020/12/20 11:37:47;;;;;;;131.02;83.88;;;;;;;10.04;88.44;101482.31;4995811;28;20038;-77
2020/12/20 11:40:52;;;;;;;121.40;83.43;;;;;;;9.94;88.25;101483.03;4995921;28;20070;-77
2020/12/20 11:43:57;;;;;;;117.45;79.55;;;;;;;9.91;88.20;101485.91;4995687;28;20047;-77
2020/12/20 11:47:01;;;;;;;120.43;83.38;;;;;;;9.80;88.68;101484.81;4995397;28;20381;-77
2020/12/20 11:50:05;;;;;;;123.55;85.55;;;;;;;9.80;89.69;101484.81;4995003;28;20046;-77
2020/12/20 11:53:10;;;;;;;126.65;85.22;;;;;;;9.78;89.55;101480.50;4995221;28;20469;-78
2020/12/20 11:56:15;;;;;;;123.28;82.45;;;;;;;9.71;89.97;101474.69;4994621;28;20039;-78
2020/12/20 11:59:19;;;;;;;129.55;86.65;;;;;;;9.66;89.85;101474.16;4995373;28;20042;-77
2020/12/20 12:02:24;;;;;;;130.88;85.43;;;;;;;9.67;89.65;101473.19;4995305;28;20034;-78
2020/12/20 12:05:29;;;;;;;130.13;85.43;;;;;;;9.70;90.11;101475.66;4995317;28;20470;-77
2020/12/20 12:08:33;;;;;;;125.93;86.30;;;;;;;9.66;89.98;101478.63;4995212;28;20047;-77
2020/12/20 12:11:37;;;;;;;131.05;85.95;;;;;;;9.66;89.75;101467.91;4994602;28;20046;-77
2020/12/20 12:14:41;;;;;;;138.65;89.50;;;;;;;9.67;90.33;101465.16;4995102;28;20038;-77
2020/12/20 12:17:46;;;;;;;130.45;87.85;;;;;;;9.63;90.04;101455.56;4994433;28;20035;-77
2020/12/20 12:20:50;;;;;;;134.40;89.00;;;;;;;9.62;89.37;101456.56;4982388;28;20038;-77
2020/12/20 12:23:55;;;;;;;126.43;83.10;;;;;;;9.70;89.62;101456.88;4995250;28;20390;-77
2020/12/20 12:26:59;;;;;;;123.70;82.00;;;;;;;9.78;89.39;101451.00;4994181;28;20050;-77
2020/12/20 12:30:04;;;;;;;125.07;84.45;;;;;;;9.84;88.85;101455.97;4994100;28;20034;-77
2020/12/20 12:33:09;;;;;;;123.57;81.55;;;;;;;9.84;88.65;101455.97;4994892;28;20046;-77
2020/12/20 12:36:13;;;;;;;125.13;84.13;;;;;;;9.89;88.90;101459.22;4994851;28;20042;-78
2020/12/20 12:39:17;;;;;;;129.13;85.93;;;;;;;9.78;88.93;101446.50;4994824;28;20046;-77
2020/12/20 12:42:21;;;;;;;127.55;86.88;;;;;;;9.79;89.05;101450.06;4994769;28;20050;-77
2020/12/20 12:45:26;;;;;;;125.45;84.03;;;;;;;9.81;89.62;101456.19;4993659;28;20466;-78
2020/12/20 12:48:30;;;;;;;122.03;84.28;;;;;;;9.79;89.31;101456.28;4994671;28;20046;-77
2020/12/20 12:51:34;;;;;;;129.40;86.50;;;;;;;9.67;90.00;101454.44;4994657;28;20046;-77
2020/12/20 12:54:39;;;;;;;129.77;86.85;;;;;;;9.63;90.11;101446.66;4994614;28;20046;-78
2020/12/20 12:57:43;;;;;;;131.68;87.60;;;;;;;9.56;90.24;101456.06;4993782;28;20050;-77
2020/12/20 13:00:47;;;;;;;134.18;91.00;;;;;;;9.48;90.65;101453.06;4998107;28;20046;-78
2020/12/20 13:03:51;;;;;;;132.98;88.72;;;;;;;9.48;90.95;101456.59;4998493;28;20042;-77
2020/12/20 13:06:56;;;;;;;129.00;87.00;;;;;;;9.51;90.80;101452.84;4997751;28;20385;-77
2020/12/20 13:10:01;;;;;;;138.45;90.18;;;;;;;9.53;91.17;101450.94;4998583;28;20050;-77
2020/12/20 13:13:05;;;;;;;130.48;86.63;;;;;;;9.51;90.86;101458.19;4998427;28;20046;-78
2020/12/20 13:16:10;;;;;;;132.00;88.60;;;;;;;9.54;91.00;101460.69;4998293;28;20050;-77
2020/12/20 13:19:14;;;;;;;128.38;87.20;;;;;;;9.54;90.86;101464.22;4997919;28;20051;-78
2020/12/20 13:22:19;;;;;;;138.27;88.28;;;;;;;9.47;90.92;101457.56;4997994;28;20474;-77
2020/12/20 13:25:24;;;;;;;133.48;86.93;;;;;;;9.43;90.82;101458.69;4997624;28;20050;-78
2020/12/20 13:28:28;;;;;;;134.00;90.80;;;;;;;9.43;91.06;101471.28;4986495;28;20050;-77
2020/12/20 13:31:33;;;;;;;127.15;86.47;;;;;;;9.51;91.20;101460.88;4998151;28;20046;-77
2020/12/20 13:34:37;;;;;;;135.73;91.18;;;;;;;9.50;91.29;101462.72;4998076;28;20042;-77
2020/12/20 13:37:42;;;;;;;133.35;90.68;;;;;;;9.52;90.82;101458.13;4998067;28;20050;-77
2020/12/20 13:40:47;;;;;;;129.18;90.07;;;;;;;9.53;90.72;101451.78;4997996;28;20490;-76
2020/12/20 13:43:51;;;;;;;128.18;86.03;;;;;;;9.52;90.18;101467.97;4997200;28;20042;-77
2020/12/20 13:46:56;;;;;;;126.90;85.45;;;;;;;9.53;90.27;101465.19;4997875;28;20393;-77
2020/12/20 13:50:00;;;;;;;127.60;85.97;;;;;;;9.53;90.59;101459.81;4985903;28;20051;-77
2020/12/20 13:53:05;;;;;;;129.20;87.65;;;;;;;9.51;90.59;101461.75;4997691;28;20038;-77
2020/12/20 13:56:09;;;;;;;137.18;88.28;;;;;;;9.51;90.40;101472.47;4997687;28;20382;-77
2020/12/20 13:59:15;;;;;;;131.05;87.72;;;;;;;9.49;90.26;101469.03;4997543;28;20042;-78
2020/12/20 14:02:20;;;;;;;128.82;88.35;;;;;;;9.49;90.59;101462.81;4997604;28;20398;-78
2020/12/20 14:05:24;;;;;;;128.23;87.60;;;;;;;9.49;91.12;101470.84;4997261;28;20042;-77
2020/12/20 14:08:28;;;;;;;123.88;85.13;;;;;;;9.49;91.00;101478.88;4997769;28;20058;-78
2020/12/20 14:11:33;;;;;;;135.75;88.90;;;;;;;9.49;90.96;101471.72;4995951;28;20038;-77